Time;durP1;ratioP1;P1;durP2;ratioP2;P2;SDS_P1;SDS_P2;PMS_P1;PMS_P2;Temp;Humidity;BMP_temperature;BMP_pressure;BME280_temperature;BME280_humidity;BME280_pressure;Samples;Min_cycle;Max_cycle;Signal;HPM_P1;HPM_P2
2023/06/09 00:02:22;;;;;;;;;26.75;25.00;;;;;-147.17;100.00;32396.31;5092499;27;51189;-60
2023/06/09 00:04:48;;;;;;;;;23.50;23.50;;;;;-147.17;100.00;31969.16;5093432;27;51522;-60
2023/06/09 00:07:17;;;;;;;;;25.50;25.00;;;;;-147.17;100.00;31757.53;5074673;27;51236;-60
2023/06/09 00:09:43;;;;;;;;;24.75;23.75;;;;;-147.17;100.00;31240.31;5076945;27;51497;-60
2023/06/09 00:12:09;;;;;;;;;27.25;26.25;;;;;-147.17;100.00;30731.00;5078135;27;51664;-60
2023/06/09 00:14:34;;;;;;;;;25.25;25.25;;;;;-147.17;100.00;30262.91;5077202;27;51159;-60
2023/06/09 00:17:01;;;;;;;;;26.50;25.50;;;;;-147.17;100.00;29375.78;5093784;27;51081;-62
2023/06/09 00:19:27;;;;;;;;;25.00;25.00;;;;;-147.17;100.00;29176.06;5091565;27;51226;-61
2023/06/09 00:21:53;;;;;;;;;27.25;25.00;;;;;-147.17;100.00;28430.13;5093657;27;51420;-61
2023/06/09 00:24:21;;;;;;;;;25.75;25.00;;;;;-147.17;100.00;27684.38;5081197;27;51208;-60
2023/06/09 00:26:47;;;;;;;;;26.25;25.25;;;;;-147.17;100.00;26889.81;5091905;27;50952;-60
2023/06/09 00:29:12;;;;;;;;;24.50;24.50;;;;;-147.17;100.00;25938.91;5088504;27;51056;-60
2023/06/09 00:31:40;;;;;;;;;22.75;22.00;;;;;-147.17;100.00;25187.72;5079835;27;51336;-59
2023/06/09 00:34:05;;;;;;;;;24.50;23.25;;;;;-147.17;100.00;25176.00;5086930;27;51239;-60
2023/06/09 00:36:31;;;;;;;;;24.00;23.25;;;;;-147.17;100.00;24424.97;5079097;27;51322;-60
2023/06/09 00:38:56;;;;;;;;;25.25;24.25;;;;;-147.17;100.00;23924.38;5092162;27;50944;-60
2023/06/09 00:41:22;;;;;;;;;24.25;24.00;;;;;-147.17;100.00;23674.09;5092412;27;50976;-60
2023/06/09 00:43:50;;;;;;;;;23.00;23.00;;;;;-147.17;100.00;23173.59;5093392;27;51286;-60
2023/06/09 00:46:16;;;;;;;;;25.00;24.25;;;;;-147.17;100.00;23173.59;5091375;27;51021;-60
2023/06/09 00:48:41;;;;;;;;;25.50;24.50;;;;;-147.17;100.00;22422.94;5093276;27;50941;-59
2023/06/09 00:51:07;;;;;;;;;27.00;26.75;;;;;-147.17;100.00;21422.31;5090954;27;51295;-60
2023/06/09 00:53:33;;;;;;;;;28.00;26.75;;;;;-147.17;100.00;21172.19;5091598;27;51951;-61
2023/06/09 00:55:58;;;;;;;;;28.50;28.50;;;;;-147.17;100.00;21172.19;5091546;27;50977;-61
2023/06/09 00:58:24;;;;;;;;;25.50;25.25;;;;;-147.17;100.00;20421.94;5076000;27;50953;-60
2023/06/09 01:00:51;;;;;;;;;25.25;25.00;;;;;-147.17;100.00;19921.84;5091892;27;51431;-60
2023/06/09 01:03:16;;;;;;;;;27.00;25.25;;;;;-147.17;100.00;19671.84;5093244;27;51295;-60
2023/06/09 01:05:48;;;;;;;;;26.00;24.75;;;;;-147.17;100.00;19171.84;5087292;27;50970;-60
2023/06/09 01:08:14;;;;;;;;;26.00;24.50;;;;;-147.17;100.00;17922.16;5075970;27;51020;-59
2023/06/09 01:10:52;;;;;;;;;25.00;24.50;;;;;-147.17;100.00;17922.16;5092984;27;51197;-60
2023/06/09 01:13:45;;;;;;;;;30.75;29.50;;;;;-147.17;100.00;17672.25;5074776;27;52214;-60
2023/06/09 01:16:27;;;;;;;;;24.50;24.50;;;;;-147.17;100.00;17172.50;5081164;27;51212;-60
2023/06/09 01:18:55;;;;;;;;;24.50;23.50;;;;;-147.17;100.00;15923.47;5080643;27;51166;-60
2023/06/09 01:21:40;;;;;;;;;26.50;25.50;;;;;-147.17;100.00;15673.69;5090938;27;51340;-59
2023/06/09 01:24:28;;;;;;;;;25.50;25.25;;;;;-147.17;100.00;15673.69;5091002;27;51871;-60
2023/06/09 01:26:55;;;;;;;;;24.25;23.00;;;;;-147.17;100.00;14924.50;5073186;27;51060;-59
2023/06/09 01:29:22;;;;;;;;;27.00;26.75;;;;;-147.17;100.00;14425.13;5078348;27;51126;-60
2023/06/09 01:31:49;;;;;;;;;27.25;25.00;;;;;-147.17;100.00;13676.16;5087933;27;51361;-59
2023/06/09 01:34:15;;;;;;;;;27.00;26.75;;;;;-147.17;100.00;13676.16;5073063;27;52100;-60
2023/06/09 01:36:42;;;;;;;;;25.50;24.50;;;;;-147.17;100.00;13676.16;5073895;27;51213;-60
2023/06/09 01:39:08;;;;;;;;;28.75;27.75;;;;;-147.17;100.00;12677.78;5092745;27;51133;-60
2023/06/09 01:41:33;;;;;;;;;26.00;25.00;;;;;-147.17;100.00;11929.16;5092129;27;51322;-59
2023/06/09 01:43:59;;;;;;;;;26.75;26.25;;;;;-147.17;100.00;11430.19;5092917;27;51032;-60
2023/06/09 01:46:24;;;;;;;;;28.00;27.25;;;;;-147.17;100.00;10182.97;5090211;27;51129;-60
2023/06/09 01:49:10;;;;;;;;;28.25;28.00;;;;;-147.17;100.00;10432.38;5072898;27;50944;-60
2023/06/09 01:51:40;;;;;;;;;29.25;28.00;;;;;-147.17;100.00;9684.19;5080786;27;50966;-60
2023/06/09 01:54:11;;;;;;;;;31.00;29.00;;;;;-147.17;100.00;8936.16;5089061;27;52359;-60
2023/06/09 01:56:41;;;;;;;;;27.50;27.50;;;;;-147.17;100.00;8686.84;5076909;27;51158;-60
2023/06/09 01:59:11;;;;;;;;;27.25;27.25;;;;;-147.17;100.00;7689.75;5083877;27;51039;-60
2023/06/09 02:01:38;;;;;;;;;28.00;26.50;;;;;-147.17;100.00;8686.84;5083445;27;51025;-61
2023/06/09 02:04:06;;;;;;;;;50.75;42.75;;;;;-147.17;100.00;7689.75;5073379;27;51887;-62
2023/06/09 02:06:33;;;;;;;;;35.00;32.25;;;;;-147.17;100.00;6942.09;5091723;27;51183;-61
2023/06/09 02:09:00;;;;;;;;;31.00;29.75;;;;;-147.17;100.00;6692.91;5087977;27;51155;-62
2023/06/09 02:11:26;;;;;;;;;25.25;25.25;;;;;-147.17;100.00;6443.75;5085093;27;50932;-61
2023/06/09 02:13:55;;;;;;;;;30.00;29.25;;;;;-147.17;100.00;5696.34;5078445;27;51797;-61
2023/06/09 02:16:22;;;;;;;;;27.50;27.00;;;;;-147.17;100.00;5945.44;5092327;27;51391;-61
2023/06/09 02:18:49;;;;;;;;;25.50;24.75;;;;;-147.17;100.00;5198.13;5089204;27;50987;-61
2023/06/09 02:21:15;;;;;;;;;29.25;29.25;;;;;-147.17;100.00;4700.00;5089368;27;51163;-61
2023/06/09 02:23:40;;;;;;;;;26.00;24.50;;;;;-147.17;100.00;4450.97;5086580;27;51919;-61
2023/06/09 02:26:08;;;;;;;;;28.50;27.00;;;;;-147.17;100.00;3703.94;5089080;27;51102;-61
2023/06/09 02:28:34;;;;;;;;;26.00;25.00;;;;;-147.17;100.00;3703.94;5081687;27;51237;-60
2023/06/09 02:31:00;;;;;;;;;28.75;26.75;;;;;-147.17;100.00;3703.94;5085258;27;51031;-60
2023/06/09 02:33:25;;;;;;;;;28.00;26.50;;;;;-147.17;100.00;3206.00;5079631;27;51192;-61
2023/06/09 02:35:51;;;;;;;;;27.00;25.50;;;;;-147.17;100.00;3206.00;5091091;27;51117;-60
2023/06/09 02:38:17;;;;;;;;;24.25;24.25;;;;;-147.17;100.00;3206.00;5079777;27;51258;-61
2023/06/09 02:40:45;;;;;;;;;25.75;25.25;;;;;-147.17;100.00;2459.22;5089429;27;51094;-60
2023/06/09 02:43:11;;;;;;;;;27.00;26.50;;;;;-147.17;100.00;1961.44;5079977;27;53081;-60
2023/06/09 02:45:37;;;;;;;;;25.25;24.25;;;;;-147.17;100.00;1712.56;5088229;27;51113;-60
2023/06/09 02:48:02;;;;;;;;;28.50;26.00;;;;;-147.17;100.00;1463.72;5079877;27;51281;-60
2023/06/09 02:50:28;;;;;;;;;23.25;23.25;;;;;-147.17;100.00;1214.91;5088583;27;51042;-61
2023/06/09 02:52:53;;;;;;;;;29.50;29.50;;;;;-147.17;100.00;468.50;5088893;27;51900;-60
2023/06/09 02:55:20;;;;;;;;;25.50;25.50;;;;;-147.17;100.00;717.28;5077090;27;51199;-60
2023/06/09 02:57:46;;;;;;;;;28.00;27.50;;;;;-147.17;100.00;219.72;5088737;27;50995;-60
2023/06/09 03:00:12;;;;;;;;;29.50;27.50;;;;;-147.17;100.00;-29.03;5088651;27;51392;-60
2023/06/09 03:02:38;;;;;;;;;24.00;23.50;;;;;-147.17;100.00;-526.47;5089570;27;51864;-60
2023/06/09 03:05:05;;;;;;;;;26.00;25.50;;;;;-147.17;100.00;-775.19;5090462;27;50953;-61
2023/06/09 03:07:31;;;;;;;;;27.50;27.00;;;;;-147.17;100.00;-1023.88;5092531;27;51015;-60
2023/06/09 03:09:57;;;;;;;;;30.00;28.75;;;;;-147.17;100.00;-1272.53;5091601;27;51356;-60
2023/06/09 03:12:22;;;;;;;;;26.75;25.75;;;;;-147.17;100.00;-1521.19;5080985;27;52178;-60
2023/06/09 03:14:48;;;;;;;;;29.00;28.00;;;;;-147.17;100.00;-2018.47;5085683;27;51178;-60
2023/06/09 03:17:13;;;;;;;;;25.75;25.75;;;;;-147.17;100.00;-2267.06;5088925;27;51195;-60
2023/06/09 03:19:38;;;;;;;;;28.25;27.25;;;;;-147.17;100.00;-2267.06;5087885;27;51427;-60
2023/06/09 03:22:04;;;;;;;;;29.00;28.00;;;;;-147.17;100.00;-2764.22;5094602;27;52092;-60
2023/06/09 03:24:30;;;;;;;;;26.50;25.00;;;;;-147.17;100.00;-3261.34;5094528;27;51110;-60
2023/06/09 03:26:56;;;;;;;;;25.75;25.00;;;;;-147.17;100.00;-3012.78;5094416;27;51012;-63
2023/06/09 03:29:22;;;;;;;;;47.75;40.00;;;;;-147.17;100.00;-3758.38;5090099;27;50988;-60
2023/06/09 03:31:47;;;;;;;;;40.50;33.75;;;;;-147.17;100.00;-4006.88;5084904;27;50952;-60
2023/06/09 03:34:12;;;;;;;;;31.25;30.00;;;;;-147.17;100.00;-4255.34;5091156;27;51125;-60
2023/06/09 03:36:38;;;;;;;;;27.50;27.25;;;;;-147.17;100.00;-4006.88;5080405;27;51269;-61
2023/06/09 03:39:03;;;;;;;;;31.00;30.25;;;;;-147.17;100.00;-4255.34;5085112;27;51272;-61
2023/06/09 03:41:29;;;;;;;;;26.75;26.75;;;;;-147.17;100.00;-4752.25;5094472;27;52293;-62
2023/06/09 03:43:54;;;;;;;;;38.75;35.00;;;;;-147.17;100.00;-4752.25;5094265;27;51174;-62
2023/06/09 03:46:20;;;;;;;;;26.00;25.00;;;;;-147.17;100.00;-5249.09;5065579;28;51518;-61
2023/06/09 03:48:46;;;;;;;;;30.50;30.00;;;;;-147.17;100.00;-5249.09;5087681;27;51499;-61
2023/06/09 03:51:11;;;;;;;;;25.25;25.25;;;;;-147.17;100.00;-5249.09;5091127;27;51608;-62
2023/06/09 03:53:36;;;;;;;;;29.25;28.00;;;;;-147.17;100.00;-5249.09;5085492;27;51016;-61
2023/06/09 03:56:02;;;;;;;;;29.00;27.50;;;;;-147.17;100.00;-5497.50;5074542;28;51042;-61
2023/06/09 03:58:27;;;;;;;;;28.50;26.50;;;;;-147.17;100.00;-5745.88;5088192;27;51324;-61
2023/06/09 04:00:53;;;;;;;;;26.50;26.00;;;;;-147.17;100.00;-5994.25;5079033;27;52227;-61
2023/06/09 04:03:20;;;;;;;;;30.75;28.50;;;;;-147.17;100.00;-5994.25;5079507;27;50980;-61
2023/06/09 04:05:46;;;;;;;;;27.00;26.00;;;;;-147.17;100.00;-5994.25;5090058;27;51126;-61
2023/06/09 04:08:12;;;;;;;;;27.00;27.00;;;;;-147.17;100.00;-6242.59;5089899;27;51287;-59
2023/06/09 04:10:38;;;;;;;;;31.00;28.25;;;;;-147.17;100.00;-6242.59;5085078;27;54242;-59
2023/06/09 04:13:03;;;;;;;;;28.00;28.00;;;;;-147.17;100.00;-6242.59;5090018;27;51022;-60
2023/06/09 04:15:29;;;;;;;;;30.50;28.50;;;;;-147.17;100.00;-6490.94;5075843;27;51107;-60
2023/06/09 04:17:54;;;;;;;;;28.50;28.50;;;;;-147.17;100.00;-6490.94;5085052;27;52027;-61
2023/06/09 04:20:22;;;;;;;;;25.50;25.25;;;;;-147.17;100.00;-6490.94;5090464;27;51127;-60
2023/06/09 04:22:49;;;;;;;;;26.50;26.50;;;;;-147.17;100.00;-6739.25;5093981;27;51192;-60
2023/06/09 04:25:14;;;;;;;;;28.75;27.75;;;;;-147.17;100.00;-6987.56;5092929;27;51252;-60
2023/06/09 04:27:41;;;;;;;;;29.00;27.25;;;;;-147.17;100.00;-6987.56;5087311;27;51183;-60
2023/06/09 04:30:07;;;;;;;;;28.75;27.25;;;;;-147.17;100.00;-6987.56;5093678;27;51072;-60
2023/06/09 04:32:33;;;;;;;;;32.00;30.25;;;;;-147.17;100.00;-7235.84;5092001;27;51252;-60
2023/06/09 04:34:59;;;;;;;;;26.50;25.75;;;;;-147.17;100.00;-7235.84;5090862;27;51194;-60
2023/06/09 04:37:25;;;;;;;;;30.25;27.00;;;;;-147.17;100.00;-6987.56;5077861;27;51084;-59
2023/06/09 04:39:50;;;;;;;;;27.75;26.75;;;;;-147.17;100.00;-7235.84;5090627;27;51897;-60
2023/06/09 04:42:19;;;;;;;;;29.00;28.25;;;;;-147.17;100.00;-7235.84;5089802;27;51421;-60
2023/06/09 04:44:47;;;;;;;;;28.00;27.75;;;;;-147.17;100.00;-7484.09;5084410;27;51126;-59
2023/06/09 04:47:17;;;;;;;;;30.75;30.50;;;;;-147.17;100.00;-7484.09;5077074;27;51077;-59
2023/06/09 04:49:46;;;;;;;;;30.75;27.75;;;;;-147.17;100.00;-7235.84;5089199;27;51026;-60
2023/06/09 04:52:12;;;;;;;;;28.00;27.50;;;;;-147.17;100.00;-7235.84;5073652;27;51287;-60
2023/06/09 04:54:38;;;;;;;;;29.25;27.75;;;;;-147.17;100.00;-6987.56;5092436;27;51180;-60
2023/06/09 04:57:07;;;;;;;;;26.75;26.00;;;;;-147.17;100.00;-6739.25;5093781;27;51005;-60
2023/06/09 04:59:33;;;;;;;;;28.00;27.00;;;;;-147.17;100.00;-7235.84;5088096;27;52891;-60
2023/06/09 05:01:58;;;;;;;;;26.50;26.00;;;;;-147.17;100.00;-7484.09;5091340;27;50959;-60
2023/06/09 05:04:23;;;;;;;;;26.75;25.75;;;;;-147.17;100.00;-7484.09;5085574;27;51248;-60
2023/06/09 05:06:49;;;;;;;;;28.75;27.75;;;;;-147.17;100.00;-5994.25;5075671;27;51343;-61
2023/06/09 05:09:14;;;;;;;;;26.50;26.25;;;;;-147.17;100.00;-4752.25;5091139;27;52753;-60
2023/06/09 05:11:40;;;;;;;;;26.75;26.75;;;;;-147.17;100.00;-2018.47;5091166;27;51244;-60
2023/06/09 05:14:05;;;;;;;;;25.75;24.00;;;;;-147.17;100.00;219.72;5090229;27;52623;-58
2023/06/09 05:16:31;;;;;;;;;25.75;25.00;;;;;-147.17;100.00;3703.94;5086361;27;51095;-58
2023/06/09 05:18:57;;;;;;;;;26.00;25.00;;;;;-147.17;100.00;6194.59;5084666;27;53757;-59
2023/06/09 05:21:24;;;;;;;;;24.75;23.75;;;;;-147.17;100.00;9684.19;5090018;27;51233;-59
2023/06/09 05:23:50;;;;;;;;;23.50;23.50;;;;;-147.17;100.00;12927.34;5084416;27;51074;-58
2023/06/09 05:26:16;;;;;;;;;23.25;23.25;;;;;-147.17;100.00;16672.84;5083504;27;51058;-58
2023/06/09 05:28:42;;;;;;;;;23.00;22.25;;;;;-147.17;100.00;20922.09;5091663;27;51220;-59
2023/06/09 05:31:07;;;;;;;;;28.00;28.00;;;;;-147.17;100.00;23674.09;5083255;27;50888;-59
2023/06/09 05:33:32;;;;;;;;;24.50;24.50;;;;;-147.17;100.00;27353.59;5075396;27;51275;-58
2023/06/09 05:35:58;;;;;;;;;24.00;23.75;;;;;-147.17;100.00;30970.00;5079093;27;51110;-59
2023/06/09 05:38:25;;;;;;;;;23.50;22.25;;;;;-147.17;100.00;32713.78;5092289;27;51080;-59
2023/06/09 05:40:51;;;;;;;;;23.25;22.75;;;;;-147.17;100.00;35495.66;5088995;27;51136;-59
2023/06/09 05:43:16;;;;;;;;;25.00;24.00;;;;;-147.17;100.00;37178.69;5091851;27;51198;-59
2023/06/09 05:45:42;;;;;;;;;24.75;23.75;;;;;-147.17;100.00;38161.75;5090813;27;51313;-61
2023/06/09 05:48:07;;;;;;;;;20.50;20.50;;;;;-147.17;100.00;38636.72;5090085;27;52437;-59
2023/06/09 05:50:32;;;;;;;;;24.25;23.25;;;;;-147.17;100.00;39582.84;5082248;27;53934;-59
2023/06/09 05:52:58;;;;;;;;;22.25;22.25;;;;;-147.17;100.00;40042.25;5072594;28;51521;-59
2023/06/09 05:55:25;;;;;;;;;28.00;26.25;;;;;-147.17;100.00;40984.81;5087641;27;51112;-59
2023/06/09 05:57:50;;;;;;;;;24.00;23.25;;;;;-147.17;100.00;41735.09;5083308;27;52355;-59
2023/06/09 06:00:16;;;;;;;;;28.00;27.25;;;;;-147.17;100.00;42072.97;5072570;27;50997;-60
2023/06/09 06:02:42;;;;;;;;;25.00;24.25;;;;;-147.17;100.00;42611.25;5073756;27;50984;-60
2023/06/09 06:05:09;;;;;;;;;25.00;24.25;;;;;-147.17;100.00;42658.41;5077879;27;51487;-59
2023/06/09 06:07:36;;;;;;;;;25.00;24.25;;;;;-147.17;100.00;43074.94;5087051;27;51785;-59
2023/06/09 06:10:05;;;;;;;;;22.25;22.25;;;;;-147.17;100.00;43348.06;5084992;27;51229;-59
2023/06/09 06:12:32;;;;;;;;;23.50;23.25;;;;;-147.17;100.00;43635.00;5078203;27;51211;-59
2023/06/09 06:14:57;;;;;;;;;24.00;24.00;;;;;-147.17;100.00;43831.50;5079300;27;51211;-58
2023/06/09 06:17:23;;;;;;;;;25.00;23.50;;;;;-147.17;100.00;44254.06;5089411;27;51157;-58
2023/06/09 06:19:50;;;;;;;;;22.75;22.75;;;;;-147.17;100.00;44546.94;5072694;27;51047;-61
2023/06/09 06:22:15;;;;;;;;;27.25;25.00;;;;;-147.17;100.00;44820.19;5084487;27;51315;-61
2023/06/09 06:24:40;;;;;;;;;23.50;23.00;;;;;-147.17;100.00;45174.03;5079261;27;50998;-60
2023/06/09 06:27:06;;;;;;;;;20.00;20.00;;;;;-147.17;100.00;44940.09;5086470;27;53613;-60
2023/06/09 06:29:31;;;;;;;;;23.00;22.50;;;;;-147.17;100.00;45028.56;5089317;27;50957;-60
2023/06/09 06:31:57;;;;;;;;;24.25;22.00;;;;;-147.17;100.00;45231.06;5092666;27;51184;-61
2023/06/09 06:34:25;;;;;;;;;22.25;22.00;;;;;-147.17;100.00;45378.50;5091966;27;50881;-60
2023/06/09 06:36:50;;;;;;;;;20.75;19.75;;;;;-147.17;100.00;45480.75;5086696;27;51905;-65
2023/06/09 06:39:15;;;;;;;;;23.75;22.00;;;;;-147.17;100.00;45567.25;5086850;27;51188;-60
2023/06/09 06:41:41;;;;;;;;;22.00;22.00;;;;;-147.17;100.00;45640.00;5091723;27;51006;-61
2023/06/09 06:44:06;;;;;;;;;16.00;15.25;;;;;-147.17;100.00;45641.97;5081892;27;50866;-60
2023/06/09 06:46:32;;;;;;;;;23.00;21.75;;;;;-147.17;100.00;45659.66;5071082;27;52127;-60
2023/06/09 06:48:57;;;;;;;;;25.00;24.25;;;;;-147.17;100.00;45754.06;5089223;27;51112;-61
2023/06/09 06:51:23;;;;;;;;;20.25;19.25;;;;;-147.17;100.00;45673.44;5079146;27;50976;-61
2023/06/09 06:53:48;;;;;;;;;24.00;24.00;;;;;-147.17;100.00;45588.88;5078770;27;51338;-63
2023/06/09 06:56:14;;;;;;;;;21.75;20.25;;;;;-147.17;100.00;45529.91;5073063;27;52117;-61
2023/06/09 06:58:40;;;;;;;;;20.50;19.50;;;;;-147.17;100.00;45427.66;5086110;27;51232;-61
2023/06/09 07:01:05;;;;;;;;;23.75;23.75;;;;;-147.17;100.00;45492.53;5095792;27;51114;-60
2023/06/09 07:03:33;;;;;;;;;20.50;20.00;;;;;-147.17;100.00;45728.50;5094567;27;51175;-60
2023/06/09 07:05:58;;;;;;;;;17.75;17.75;;;;;-147.17;100.00;46194.53;5094711;27;52074;-60
2023/06/09 07:08:24;;;;;;;;;16.00;15.00;;;;;-147.17;100.00;46345.94;5094483;27;51036;-60
2023/06/09 07:10:49;;;;;;;;;18.75;18.50;;;;;-147.17;100.00;46414.78;5093903;27;51146;-60
2023/06/09 07:13:15;;;;;;;;;21.00;21.00;;;;;-147.17;100.00;46487.53;5092771;27;51432;-60
2023/06/09 07:15:40;;;;;;;;;16.00;16.00;;;;;-147.17;100.00;46345.94;5082372;27;52690;-60
2023/06/09 07:18:06;;;;;;;;;20.00;20.00;;;;;-147.17;100.00;46273.19;5079909;27;51285;-60
2023/06/09 07:20:32;;;;;;;;;20.25;20.25;;;;;-147.17;100.00;46204.34;5082025;27;51108;-60
2023/06/09 07:22:57;;;;;;;;;20.00;20.00;;;;;-147.17;100.00;46251.53;5079573;27;51253;-60
2023/06/09 07:25:23;;;;;;;;;20.00;19.00;;;;;-147.17;100.00;46125.69;5092398;27;53172;-60
2023/06/09 07:27:48;;;;;;;;;20.25;20.00;;;;;-147.17;100.00;46121.75;5093539;27;50992;-59
2023/06/09 07:30:14;;;;;;;;;19.75;19.00;;;;;-147.17;100.00;45952.66;5081935;27;51015;-61
2023/06/09 07:32:39;;;;;;;;;20.25;20.00;;;;;-147.17;100.00;45968.38;5090677;27;51153;-61
2023/06/09 07:35:05;;;;;;;;;21.50;21.00;;;;;-147.17;100.00;46082.44;5086997;27;53119;-56
2023/06/09 07:37:31;;;;;;;;;21.00;21.00;;;;;-147.17;100.00;46047.03;5075018;27;51668;-54
2023/06/09 07:39:56;;;;;;;;;19.75;19.25;;;;;-147.17;100.00;45990.00;5073244;27;51132;-53
2023/06/09 07:42:22;;;;;;;;;19.00;18.75;;;;;-147.17;100.00;45870.06;5074169;27;51279;-55
2023/06/09 07:44:47;;;;;;;;;19.25;19.25;;;;;-147.17;100.00;46049.00;5075896;27;53263;-54
2023/06/09 07:47:13;;;;;;;;;19.00;19.00;;;;;-147.17;100.00;46074.56;5093542;27;51149;-55
2023/06/09 07:49:38;;;;;;;;;22.25;21.25;;;;;-147.17;100.00;45870.06;5087483;27;51087;-54
2023/06/09 07:52:04;;;;;;;;;22.50;22.00;;;;;-147.17;100.00;45588.88;5075111;27;51086;-55
2023/06/09 07:54:29;;;;;;;;;21.00;20.75;;;;;-147.17;100.00;45254.66;5074239;27;51686;-54
2023/06/09 07:56:55;;;;;;;;;21.25;20.75;;;;;-147.17;100.00;44887.03;5073866;27;51033;-53
2023/06/09 07:59:21;;;;;;;;;17.75;17.75;;;;;-147.17;100.00;-15917.19;5074368;27;50978;-55
2023/06/09 08:01:47;;;;;;;;;23.50;23.25;;;;;-147.17;100.00;-15917.19;5075785;27;51100;-54
2023/06/09 08:04:13;;;;;;;;;19.75;19.50;;;;;-147.17;100.00;-15917.19;5086875;27;51892;-59
2023/06/09 08:06:39;;;;;;;;;20.50;19.50;;;;;-147.17;100.00;-15917.19;5094588;27;51306;-58
2023/06/09 08:09:04;;;;;;;;;19.75;18.75;;;;;-147.17;100.00;-15917.19;5086505;27;50937;-59
2023/06/09 08:11:30;;;;;;;;;14.75;13.00;;;;;-147.17;100.00;-15917.19;5077988;27;51390;-58
2023/06/09 08:13:55;;;;;;;;;21.75;21.50;;;;;-147.17;100.00;-15917.19;5090606;27;51831;-64
2023/06/09 08:16:21;;;;;;;;;16.50;16.25;;;;;-147.17;100.00;-15917.19;5093183;27;51220;-63
2023/06/09 08:18:46;;;;;;;;;20.50;20.50;;;;;-147.17;100.00;-6739.25;5088205;27;51513;-63
2023/06/09 08:21:11;;;;;;;;;16.67;16.33;;;;;-147.17;100.00;12178.69;5091401;27;51335;-56
2023/06/09 08:23:37;;;;;;;;;19.25;19.00;;;;;-147.17;100.00;23529.41;5089271;27;51309;-57
2023/06/09 08:26:02;;;;;;;;;20.00;19.75;;;;;-147.17;100.00;31052.25;5075647;27;51228;-55
2023/06/09 08:28:28;;;;;;;;;20.25;19.75;;;;;-147.17;100.00;33388.00;5088200;27;51160;-57
2023/06/09 08:30:53;;;;;;;;;20.00;20.00;;;;;-147.17;100.00;34128.97;5092138;27;50886;-57
2023/06/09 08:33:19;;;;;;;;;20.00;19.75;;;;;-147.17;100.00;35248.56;5089497;27;51672;-57
2023/06/09 08:35:44;;;;;;;;;20.50;20.00;;;;;-147.17;100.00;37212.03;5085513;27;51204;-57
2023/06/09 08:38:10;;;;;;;;;19.25;19.25;;;;;-147.17;100.00;37553.44;5092367;27;51128;-57
2023/06/09 08:40:35;;;;;;;;;20.25;19.25;;;;;-147.17;100.00;37347.41;5094228;27;51140;-55
2023/06/09 08:43:05;;;;;;;;;21.25;19.75;;;;;-147.17;100.00;38036.16;5092663;27;52061;-56
2023/06/09 08:45:33;;;;;;;;;18.75;18.75;;;;;-147.17;100.00;38263.81;5073885;27;51190;-56
2023/06/09 08:48:02;;;;;;;;;23.25;23.25;;;;;-147.17;100.00;38206.91;5090257;27;51167;-56
2023/06/09 08:50:30;;;;;;;;;19.00;19.00;;;;;-147.17;100.00;39912.69;5083285;27;51362;-58
2023/06/09 08:52:56;;;;;;;;;20.75;19.50;;;;;-147.17;100.00;40136.50;5090300;27;52149;-58
2023/06/09 08:55:22;;;;;;;;;18.25;17.75;;;;;-147.17;100.00;39948.00;5087732;27;51114;-57
2023/06/09 08:57:49;;;;;;;;;18.00;17.50;;;;;-147.17;100.00;39969.63;5089175;27;51079;-58
2023/06/09 09:00:15;;;;;;;;;21.50;21.00;;;;;-147.17;100.00;39720.28;5085562;27;51248;-57
2023/06/09 09:02:41;;;;;;;;;20.75;20.00;;;;;-147.17;100.00;39883.22;5088023;27;53020;-57
2023/06/09 09:05:07;;;;;;;;;21.50;21.00;;;;;-147.17;100.00;40152.22;5091412;27;50980;-57
2023/06/09 09:07:32;;;;;;;;;18.75;18.75;;;;;-147.17;100.00;39724.19;5084644;27;51173;-58
2023/06/09 09:10:00;;;;;;;;;21.50;21.50;;;;;-147.17;100.00;40707.91;5100314;27;51225;-58
2023/06/09 09:12:26;;;;;;;;;18.75;18.75;;;;;-147.17;100.00;41012.31;5087951;27;51913;-57
2023/06/09 09:14:51;;;;;;;;;16.75;16.50;;;;;-147.17;100.00;40843.41;5083561;27;51026;-57
2023/06/09 09:17:17;;;;;;;;;18.25;17.50;;;;;-147.17;100.00;40364.28;5089173;27;51133;-57
2023/06/09 09:19:51;;;;;;;;;19.75;19.75;;;;;-147.17;100.00;40588.13;5071267;28;51234;-57
2023/06/09 09:22:17;;;;;;;;;19.75;19.00;;;;;-147.17;100.00;40495.84;5085577;27;51101;-54
2023/06/09 09:24:48;;;;;;;;;18.75;18.75;;;;;-147.17;100.00;40552.78;5072408;27;51128;-55
2023/06/09 09:27:18;;;;;;;;;17.75;17.75;;;;;-147.17;100.00;40672.56;5085679;27;51151;-52
2023/06/09 09:29:45;;;;;;;;;20.75;19.50;;;;;-147.17;100.00;41083.00;5093416;27;51222;-53
2023/06/09 09:32:10;;;;;;;;;17.75;17.75;;;;;-147.17;100.00;41263.69;5085962;27;52735;-54
2023/06/09 09:34:39;;;;;;;;;18.25;18.00;;;;;-147.17;100.00;41436.53;5083441;27;51244;-54
2023/06/09 09:37:10;;;;;;;;;17.75;17.75;;;;;-147.17;100.00;42033.66;5084238;27;51345;-54
2023/06/09 09:39:47;;;;;;;;;19.00;19.00;;;;;-147.17;100.00;42831.31;5083910;27;51639;-55
2023/06/09 09:42:12;;;;;;;;;18.50;17.75;;;;;-147.17;100.00;43499.38;5081275;27;52368;-54
2023/06/09 09:44:39;;;;;;;;;17.75;17.25;;;;;-147.17;100.00;43770.59;5085567;27;52650;-56
2023/06/09 09:47:06;;;;;;;;;17.25;17.25;;;;;-147.17;100.00;44275.69;5086485;27;51271;-56
2023/06/09 09:49:32;;;;;;;;;16.75;16.75;;;;;-147.17;100.00;44297.31;5082872;27;51398;-55
2023/06/09 09:51:58;;;;;;;;;17.25;17.00;;;;;-147.17;100.00;44265.88;5062534;27;51655;-55
2023/06/09 09:54:26;;;;;;;;;18.50;18.50;;;;;-147.17;100.00;44311.06;5080390;27;51482;-55
2023/06/09 09:56:57;;;;;;;;;18.00;18.00;;;;;-147.17;100.00;44281.59;5081506;27;51164;-54
2023/06/09 09:59:23;;;;;;;;;19.75;18.75;;;;;-147.17;100.00;44081.13;5090840;27;51175;-55
2023/06/09 10:01:52;;;;;;;;;17.50;17.50;;;;;-147.17;100.00;44067.34;5089839;27;51295;-56
2023/06/09 10:04:23;;;;;;;;;17.00;17.00;;;;;-147.17;100.00;43980.88;5090852;27;51098;-54
2023/06/09 10:06:53;;;;;;;;;16.75;16.50;;;;;-147.17;100.00;43878.69;5089229;27;51273;-52
2023/06/09 10:09:21;;;;;;;;;17.75;17.25;;;;;-147.17;100.00;44258.00;5090933;27;51120;-55
2023/06/09 10:11:47;;;;;;;;;16.75;16.75;;;;;-147.17;100.00;44670.78;5090512;27;52012;-56
2023/06/09 10:14:13;;;;;;;;;18.75;18.25;;;;;-147.17;100.00;44997.13;5089858;27;51167;-56
2023/06/09 10:16:39;;;;;;;;;16.75;16.75;;;;;-147.17;100.00;45115.06;5090549;27;53061;-55
2023/06/09 10:19:05;;;;;;;;;18.50;17.25;;;;;-147.17;100.00;45097.38;5078403;27;51151;-55
2023/06/09 10:21:31;;;;;;;;;17.75;16.75;;;;;-147.17;100.00;44686.50;5086743;27;51050;-54
2023/06/09 10:23:58;;;;;;;;;17.75;17.75;;;;;-147.17;100.00;44773.00;5082467;27;50919;-55
2023/06/09 10:26:24;;;;;;;;;19.25;18.00;;;;;-147.17;100.00;45154.38;5089036;27;51666;-56
2023/06/09 10:28:49;;;;;;;;;17.75;17.75;;;;;-147.17;100.00;45217.28;5092726;27;51401;-55
2023/06/09 10:31:18;;;;;;;;;16.50;16.50;;;;;-147.17;100.00;45901.53;5078773;27;53203;-55
2023/06/09 10:33:45;;;;;;;;;19.00;18.25;;;;;-147.17;100.00;46483.59;5091630;27;51048;-54
2023/06/09 10:36:12;;;;;;;;;19.75;19.75;;;;;-147.17;100.00;46794.34;5090326;27;51328;-55
2023/06/09 10:38:47;;;;;;;;;21.50;20.75;;;;;-147.17;100.00;47158.22;5087134;27;52109;-58
2023/06/09 10:41:31;;;;;;;;;19.50;19.50;;;;;-147.17;100.00;47545.72;5092789;27;52225;-56
2023/06/09 10:44:02;;;;;;;;;19.50;16.75;;;;;-147.17;100.00;47608.69;5076832;27;51120;-54
2023/06/09 10:46:42;;;;;;;;;18.75;18.00;;;;;-147.17;100.00;47701.13;5086869;27;51172;-54
2023/06/09 10:49:36;;;;;;;;;19.25;19.25;;;;;-147.17;100.00;47710.97;5075105;27;51014;-55
2023/06/09 10:52:05;;;;;;;;;19.00;18.00;;;;;-147.17;100.00;47671.63;5078711;27;52752;-55
2023/06/09 10:54:32;;;;;;;;;19.75;19.75;;;;;-147.17;100.00;47740.47;5090831;27;51219;-53